Time;durP1;ratioP1;P1;durP2;ratioP2;P2;SDS_P1;SDS_P2;PMS_P1;PMS_P2;Temp;Humidity;BMP_temperature;BMP_pressure;BME280_temperature;BME280_humidity;BME280_pressure;Samples;Min_cycle;Max_cycle;Signal;HPM_P1;HPM_P2
2022/04/11 00:02:02;;;;;;;;;11.50;8.00;;;;;13.20;51.21;101233.97;5086561;27;45325;-80
2022/04/11 00:04:28;;;;;;;;;10.50;6.25;;;;;13.16;51.60;101231.25;5096907;27;45510;-79
2022/04/11 00:06:54;;;;;;;;;7.25;7.25;;;;;13.16;51.47;101230.34;5091346;27;45409;-80
2022/04/11 00:09:20;;;;;;;;;9.25;7.25;;;;;13.14;51.37;101222.50;5081533;27;45478;-78
2022/04/11 00:11:46;;;;;;;;;12.25;8.25;;;;;13.15;51.32;101221.69;5077399;28;45287;-78
2022/04/11 00:14:13;;;;;;;;;6.50;6.50;;;;;13.08;51.64;101216.16;5077206;27;45323;-78
2022/04/11 00:16:39;;;;;;;;;7.50;7.00;;;;;13.09;51.92;101223.13;5077365;27;45502;-78
2022/04/11 00:19:05;;;;;;;;;7.00;7.00;;;;;13.06;51.96;101225.59;5089933;27;45509;-79
2022/04/11 00:21:31;;;;;;;;;6.00;6.00;;;;;12.98;51.94;101212.28;5058989;28;45879;-79
2022/04/11 00:23:57;;;;;;;;;9.00;6.00;;;;;13.00;52.09;101218.44;5077476;27;45426;-79
2022/04/11 00:26:22;;;;;;;;;6.25;6.25;;;;;12.95;52.12;101206.97;5095664;27;45335;-78
2022/04/11 00:28:48;;;;;;;;;5.00;5.00;;;;;12.98;52.15;101209.69;5077924;27;45866;-79
2022/04/11 00:31:14;;;;;;;;;6.50;6.50;;;;;13.03;52.31;101210.78;5080095;27;45236;-79
2022/04/11 00:33:39;;;;;;;;;7.25;6.75;;;;;12.99;52.01;101196.78;5083236;27;45449;-79
2022/04/11 00:36:05;;;;;;;;;6.00;6.00;;;;;13.00;52.51;101198.56;5079673;27;45283;-79
2022/04/11 00:38:30;;;;;;;;;6.00;6.00;;;;;12.94;52.19;101180.09;5083428;27;46199;-78
2022/04/11 00:40:56;;;;;;;;;5.75;5.00;;;;;13.00;52.11;101179.44;5069897;28;45278;-79
2022/04/11 00:43:38;;;;;;;;;5.25;5.25;;;;;13.01;51.91;101174.31;5084005;28;45252;-79
2022/04/11 00:46:05;;;;;;;;;6.00;6.00;;;;;12.98;51.67;101166.41;5078757;27;45405;-79
2022/04/11 00:48:31;;;;;;;;;7.00;4.75;;;;;12.92;51.70;101166.13;5076828;27;45326;-79
2022/04/11 00:51:02;;;;;;;;;5.50;4.50;;;;;12.93;51.18;101169.63;5081502;27;45502;-79
2022/04/11 00:53:31;;;;;;;;;5.75;4.50;;;;;12.87;51.23;101157.28;5083309;27;45527;-79
2022/04/11 00:55:57;;;;;;;;;3.25;3.25;;;;;12.90;50.73;101160.00;5076817;27;45590;-79
2022/04/11 00:58:23;;;;;;;;;4.25;3.00;;;;;12.85;50.88;101148.53;5080581;27;45296;-79
2022/04/11 01:00:49;;;;;;;;;4.25;4.00;;;;;12.87;50.91;101144.28;5077398;27;45312;-79
2022/04/11 01:03:15;;;;;;;;;4.00;4.00;;;;;12.87;50.95;101138.19;5088309;27;45310;-79
2022/04/11 01:05:42;;;;;;;;;3.50;3.50;;;;;12.84;50.54;101124.28;5082164;27;45648;-79
2022/04/11 01:08:09;;;;;;;;;4.25;3.00;;;;;12.85;50.84;101120.81;5085431;27;45343;-78
2022/04/11 01:10:35;;;;;;;;;4.25;3.00;;;;;12.93;50.75;101131.53;5076677;27;45801;-77
2022/04/11 01:13:02;;;;;;;;;4.00;4.00;;;;;12.90;50.16;101126.22;5092196;27;45231;-78
2022/04/11 01:15:27;;;;;;;;;3.00;3.00;;;;;12.91;50.09;101121.91;5080283;27;45455;-77
2022/04/11 01:17:53;;;;;;;;;2.25;2.25;;;;;12.92;50.31;101123.69;5056631;27;46297;-78
2022/04/11 01:20:20;;;;;;;;;4.00;4.00;;;;;12.93;50.46;101120.25;5067340;27;45435;-78
2022/04/11 01:22:48;;;;;;;;;4.00;4.00;;;;;12.93;50.74;101110.75;5079766;27;47019;-80
2022/04/11 01:25:14;;;;;;;;;2.50;2.50;;;;;12.97;50.21;101119.53;5080103;27;45580;-79
2022/04/11 01:27:41;;;;;;;;;3.00;3.00;;;;;12.94;50.04;101109.91;5076855;28;45361;-78
2022/04/11 01:30:10;;;;;;;;;3.00;2.25;;;;;12.96;49.78;101108.28;5087503;27;46067;-78
2022/04/11 01:32:37;;;;;;;;;2.00;2.00;;;;;12.95;49.87;101103.91;5057080;28;45777;-78
2022/04/11 01:35:04;;;;;;;;;3.25;3.25;;;;;12.96;49.99;101097.88;5079504;27;45394;-78
2022/04/11 01:37:30;;;;;;;;;3.50;3.25;;;;;12.94;49.72;101099.53;5067034;28;48318;-78
2022/04/11 01:39:56;;;;;;;;;2.75;2.75;;;;;12.93;49.38;101096.88;5080933;27;45237;-79
2022/04/11 01:42:22;;;;;;;;;2.00;2.00;;;;;12.94;49.08;101091.72;5080018;27;45224;-79
2022/04/11 01:44:47;;;;;;;;;4.75;3.50;;;;;12.91;49.56;101085.53;5075380;27;45531;-79
2022/04/11 01:47:13;;;;;;;;;3.00;3.00;;;;;12.88;49.28;101081.09;5075562;27;45259;-80
2022/04/11 01:49:39;;;;;;;;;2.75;2.75;;;;;12.93;48.99;101084.75;5079966;27;45501;-80
2022/04/11 01:52:05;;;;;;;;;2.50;2.50;;;;;12.84;49.32;101069.69;5064177;28;45399;-80
2022/04/11 01:54:33;;;;;;;;;3.75;3.75;;;;;12.80;49.50;101075.59;5075817;28;45468;-78
2022/04/11 01:56:59;;;;;;;;;3.50;3.50;;;;;12.80;50.17;101083.38;5076449;27;46424;-78
2022/04/11 01:59:24;;;;;;;;;6.00;5.25;;;;;12.76;50.17;101080.59;5078163;27;45283;-78
2022/04/11 02:01:51;;;;;;;;;4.50;4.50;;;;;12.64;50.39;101076.69;5080123;27;45638;-77
2022/04/11 02:04:16;;;;;;;;;3.75;3.75;;;;;12.51;50.50;101056.22;5083140;27;45616;-78
2022/04/11 02:06:42;;;;;;;;;4.00;4.00;;;;;12.61;50.93;101078.28;5086625;27;45659;-78
2022/04/11 02:09:09;;;;;;;;;4.00;3.50;;;;;12.57;50.95;101074.69;5091217;27;45461;-78
2022/04/11 02:11:34;;;;;;;;;3.50;3.00;;;;;12.53;51.40;101070.16;5088959;27;45494;-79
2022/04/11 02:14:00;;;;;;;;;4.25;3.50;;;;;12.35;51.20;101044.31;5087360;27;45372;-78
2022/04/11 02:16:26;;;;;;;;;4.00;4.00;;;;;12.45;51.28;101064.66;5080311;27;45507;-79
2022/04/11 02:18:55;;;;;;;;;3.75;3.75;;;;;12.38;51.33;101057.44;5080271;27;45410;-80
2022/04/11 02:21:21;;;;;;;;;4.00;4.00;;;;;12.36;51.18;101059.09;5075754;28;45384;-79
2022/04/11 02:23:46;;;;;;;;;6.00;3.50;;;;;12.35;51.69;101055.63;5077559;27;45587;-79
2022/04/11 02:26:12;;;;;;;;;3.00;3.00;;;;;12.36;51.19;101053.88;5087856;27;45401;-79
2022/04/11 02:28:38;;;;;;;;;4.00;4.00;;;;;12.28;51.17;101042.31;5090437;27;45307;-79
2022/04/11 02:31:03;;;;;;;;;3.00;3.00;;;;;12.30;51.31;101046.72;5064926;27;45426;-79
2022/04/11 02:33:29;;;;;;;;;4.00;4.00;;;;;12.28;51.39;101042.31;5090025;27;45607;-79
2022/04/11 02:35:55;;;;;;;;;6.25;5.00;;;;;12.18;51.58;101035.84;5085521;27;45504;-79
2022/04/11 02:38:20;;;;;;;;;6.25;4.75;;;;;12.25;51.64;101045.66;5096009;27;45507;-79
2022/04/11 02:40:46;;;;;;;;;4.00;4.00;;;;;12.20;51.53;101042.84;5099464;27;45398;-80
2022/04/11 02:43:12;;;;;;;;;3.50;3.50;;;;;12.14;51.73;101033.94;5090193;27;45565;-79
2022/04/11 02:45:38;;;;;;;;;4.00;4.00;;;;;12.10;52.10;101035.50;5082617;27;45551;-79
2022/04/11 02:48:03;;;;;;;;;3.50;3.50;;;;;12.06;51.93;101029.31;5088880;27;45303;-79
2022/04/11 02:50:29;;;;;;;;;4.75;3.00;;;;;12.11;52.36;101031.22;5083144;28;45339;-79
2022/04/11 02:52:54;;;;;;;;;4.00;3.00;;;;;12.10;52.34;101029.44;5076746;27;45656;-79
2022/04/11 02:55:21;;;;;;;;;4.00;4.00;;;;;12.08;52.29;101024.19;5078584;27;45299;-79
2022/04/11 02:57:46;;;;;;;;;3.00;3.00;;;;;12.05;52.12;101022.34;5079001;27;45228;-80
2022/04/11 03:00:13;;;;;;;;;3.25;3.25;;;;;12.00;52.28;101005.72;5083762;27;45257;-79
2022/04/11 03:02:39;;;;;;;;;5.75;5.75;;;;;11.96;52.20;101005.47;5078633;28;45346;-79
2022/04/11 03:05:05;;;;;;;;;4.00;3.00;;;;;11.91;52.57;101000.97;5078499;27;45660;-80
2022/04/11 03:07:31;;;;;;;;;4.75;4.75;;;;;11.88;52.68;101000.84;5084473;27;45373;-81
2022/04/11 03:09:57;;;;;;;;;6.50;4.00;;;;;11.81;52.95;100995.34;5087370;27;45322;-78
2022/04/11 03:12:25;;;;;;;;;7.00;5.00;;;;;11.70;52.92;100968.94;5099223;27;45405;-78
2022/04/11 03:14:50;;;;;;;;;4.75;3.75;;;;;11.81;52.76;100992.75;5089673;27;45407;-78
2022/04/11 03:17:17;;;;;;;;;6.00;4.00;;;;;11.76;52.83;100988.25;5089185;27;45461;-79
2022/04/11 03:19:44;;;;;;;;;4.00;4.00;;;;;11.75;53.01;100991.66;5063655;28;45245;-80
2022/04/11 03:22:11;;;;;;;;;3.50;3.50;;;;;11.74;52.88;100989.88;5089866;27;45516;-79
2022/04/11 03:24:37;;;;;;;;;5.00;4.00;;;;;11.71;52.73;100994.94;5082177;27;45440;-79
2022/04/11 03:27:03;;;;;;;;;4.00;4.00;;;;;11.69;52.90;100996.59;5088820;27;45529;-79
2022/04/11 03:29:29;;;;;;;;;4.00;4.00;;;;;11.64;52.93;100994.63;5088235;27;45445;-79
2022/04/11 03:31:55;;;;;;;;;5.00;3.75;;;;;11.67;52.96;100997.31;5087101;27;45293;-79
2022/04/11 03:34:20;;;;;;;;;5.00;5.00;;;;;11.59;53.31;100987.50;5084582;27;45339;-78
2022/04/11 03:36:46;;;;;;;;;4.00;4.00;;;;;11.66;53.26;100998.16;5078382;27;45390;-79
2022/04/11 03:39:12;;;;;;;;;5.75;4.00;;;;;11.43;53.33;100962.63;5085840;27;45495;-78
2022/04/11 03:41:38;;;;;;;;;2.25;2.25;;;;;11.51;53.31;100980.22;5088420;27;45478;-79
2022/04/11 03:44:04;;;;;;;;;5.00;5.00;;;;;11.50;53.35;100988.84;5077055;28;45740;-78
2022/04/11 03:46:29;;;;;;;;;4.75;4.00;;;;;11.53;53.63;100991.53;5077102;27;45277;-79
2022/04/11 03:48:55;;;;;;;;;4.25;4.25;;;;;11.54;53.40;100980.34;5086393;27;45453;-78
2022/04/11 03:51:21;;;;;;;;;4.00;4.00;;;;;11.42;53.50;100954.78;5092421;27;45614;-79
2022/04/11 03:53:50;;;;;;;;;5.25;5.25;;;;;11.51;53.72;100968.16;5090947;27;46163;-79
2022/04/11 03:56:17;;;;;;;;;3.75;3.75;;;;;11.43;53.65;100962.63;5078420;27;45295;-79
2022/04/11 03:58:43;;;;;;;;;4.75;3.25;;;;;11.49;54.45;100967.19;5078139;27;45388;-78
2022/04/11 04:01:09;;;;;;;;;4.75;4.75;;;;;11.35;54.32;100948.44;5080657;27;45506;-79
2022/04/11 04:03:36;;;;;;;;;7.00;7.00;;;;;11.34;55.29;100948.38;5074173;27;45562;-78
2022/04/11 04:06:01;;;;;;;;;8.00;6.25;;;;;11.39;55.19;100955.50;5083233;27;45319;-79
2022/04/11 04:08:27;;;;;;;;;8.00;6.25;;;;;11.35;55.27;100951.03;5097880;27;45386;-79
2022/04/11 04:10:53;;;;;;;;;4.50;4.50;;;;;11.26;55.79;100945.44;5096148;27;45628;-78
2022/04/11 04:13:19;;;;;;;;;6.00;4.00;;;;;11.24;55.59;100939.31;5099188;27;46052;-79
2022/04/11 04:15:45;;;;;;;;;7.00;5.50;;;;;11.29;56.32;100949.06;5086561;27;45232;-79
2022/04/11 04:18:12;;;;;;;;;7.00;5.75;;;;;11.30;56.24;100952.53;5077488;27;45336;-79
2022/04/11 04:20:40;;;;;;;;;7.00;7.00;;;;;11.31;56.59;100949.13;5077751;28;45551;-80
2022/04/11 04:23:06;;;;;;;;;6.50;6.25;;;;;11.30;56.50;100952.53;5079141;27;45524;-79
2022/04/11 04:25:36;;;;;;;;;6.50;6.50;;;;;11.31;56.77;100949.13;5087577;27;46762;-78
2022/04/11 04:28:02;;;;;;;;;6.00;6.00;;;;;11.23;56.58;100942.72;5088012;27;45232;-78
2022/04/11 04:30:31;;;;;;;;;10.00;6.25;;;;;11.19;56.77;100936.53;5084224;27;45272;-78
2022/04/11 04:32:58;;;;;;;;;8.00;6.00;;;;;11.15;57.27;100930.31;5079786;27;46749;-78
2022/04/11 04:35:24;;;;;;;;;6.75;6.75;;;;;11.17;57.33;100930.38;5080810;27;45410;-78
2022/04/11 04:37:52;;;;;;;;;8.00;6.50;;;;;11.15;57.45;100919.94;5081391;27;45308;-77
2022/04/11 04:40:17;;;;;;;;;6.25;5.00;;;;;11.13;57.56;100910.31;5077602;28;45633;-78
2022/04/11 04:42:43;;;;;;;;;7.50;6.50;;;;;11.13;56.96;100916.41;5075836;28;46341;-78
2022/04/11 04:45:09;;;;;;;;;6.00;6.00;;;;;11.12;57.18;100917.22;5077384;27;45235;-78
2022/04/11 04:47:35;;;;;;;;;3.75;3.00;;;;;11.20;57.23;100929.63;5077560;28;45936;-78
2022/04/11 04:50:00;;;;;;;;;6.25;6.00;;;;;11.11;56.41;100919.75;5079509;28;45429;-78
2022/04/11 04:52:26;;;;;;;;;6.50;6.50;;;;;11.10;56.89;100925.75;5061550;28;46706;-79
2022/04/11 04:54:52;;;;;;;;;7.50;6.00;;;;;11.19;56.94;100943.38;5077788;28;45356;-79
2022/04/11 04:57:17;;;;;;;;;6.00;6.00;;;;;11.12;56.77;100943.13;5077597;28;45389;-79
2022/04/11 04:59:43;;;;;;;;;5.25;5.25;;;;;11.17;56.50;100955.41;5076184;28;45672;-78
2022/04/11 05:02:09;;;;;;;;;6.25;6.25;;;;;11.03;56.81;100942.72;5076236;28;45912;-77
2022/04/11 05:04:34;;;;;;;;;6.25;6.00;;;;;11.01;56.62;100946.94;5075033;28;45481;-78
2022/04/11 05:07:00;;;;;;;;;5.75;5.75;;;;;11.06;57.20;100963.59;5076735;28;45355;-79
2022/04/11 05:09:25;;;;;;;;;6.25;6.25;;;;;11.04;57.38;100962.63;5077647;28;45615;-79
2022/04/11 05:11:51;;;;;;;;;7.00;6.00;;;;;11.02;57.68;100948.72;5075764;28;46121;-78
2022/04/11 05:14:17;;;;;;;;;6.00;6.00;;;;;10.90;58.05;100941.28;5058646;28;45374;-77
2022/04/11 05:16:43;;;;;;;;;7.50;7.50;;;;;10.94;58.22;100939.72;5076495;27;45212;-78
2022/04/11 05:19:09;;;;;;;;;9.25;6.75;;;;;10.96;57.89;100949.31;5076160;27;45228;-78
2022/04/11 05:21:34;;;;;;;;;8.00;8.00;;;;;10.92;57.73;100941.34;5076489;28;45889;-78
2022/04/11 05:24:00;;;;;;;;;6.00;6.00;;;;;10.95;58.05;100944.09;5075696;28;45430;-78
2022/04/11 05:26:26;;;;;;;;;7.50;7.00;;;;;10.93;57.63;100937.94;5075906;28;45382;-78
2022/04/11 05:28:52;;;;;;;;;7.00;6.50;;;;;10.96;58.05;100938.97;5075671;28;45389;-76
2022/04/11 05:31:18;;;;;;;;;7.75;7.00;;;;;10.93;57.66;100935.34;5076169;28;45573;-77
2022/04/11 05:33:45;;;;;;;;;7.00;6.25;;;;;10.95;58.16;100939.78;5076726;28;45848;-78
2022/04/11 05:36:11;;;;;;;;;8.50;7.50;;;;;10.77;57.77;100905.28;5060506;28;45445;-77
2022/04/11 05:38:37;;;;;;;;;7.00;7.00;;;;;10.88;58.23;100931.66;5077334;27;46729;-80
2022/04/11 05:41:03;;;;;;;;;10.00;8.75;;;;;10.75;57.91;100910.38;5075645;28;45561;-80
2022/04/11 05:43:41;;;;;;;;;8.00;6.00;;;;;10.84;58.12;100934.13;5076981;27;45469;-80
2022/04/11 05:46:07;;;;;;;;;9.00;9.00;;;;;10.79;57.98;100917.47;5073834;27;45497;-80
2022/04/11 05:48:34;;;;;;;;;13.25;8.75;;;;;10.88;57.62;100929.97;5076436;27;45427;-80
2022/04/11 05:51:00;;;;;;;;;9.50;8.50;;;;;10.89;57.85;100921.38;5076898;27;45447;-80
2022/04/11 05:53:26;;;;;;;;;9.25;9.00;;;;;10.92;57.81;100921.50;5075408;28;45478;-80
2022/04/11 05:55:52;;;;;;;;;9.00;8.00;;;;;11.03;57.33;100936.63;5075267;28;45211;-80
2022/04/11 05:58:18;;;;;;;;;9.00;7.50;;;;;10.82;57.58;100904.66;5075997;28;45547;-79
2022/04/11 06:00:43;;;;;;;;;8.50;7.00;;;;;10.91;57.09;100921.44;5093462;27;45413;-79
2022/04/11 06:03:09;;;;;;;;;9.25;8.50;;;;;10.82;57.16;100907.25;5078910;27;45260;-80
2022/04/11 06:05:37;;;;;;;;;9.50;8.50;;;;;11.01;57.29;100926.22;5092705;27;45483;-80
2022/04/11 06:08:04;;;;;;;;;12.00;9.00;;;;;11.08;57.14;100941.22;5083210;27;45530;-83
2022/04/11 06:10:29;;;;;;;;;7.75;7.00;;;;;10.95;57.01;100915.59;5097277;27;45416;-81
2022/04/11 06:12:55;;;;;;;;;11.50;9.00;;;;;10.98;56.74;100924.38;5099055;27;45310;-84
2022/04/11 06:15:21;;;;;;;;;8.00;8.00;;;;;11.05;56.83;100932.41;5074700;28;45204;-80
2022/04/11 06:17:47;;;;;;;;;9.00;8.25;;;;;11.14;56.98;100941.50;5083528;27;45641;-82
2022/04/11 06:20:12;;;;;;;;;12.50;9.50;;;;;11.13;56.83;100933.63;5086463;27;46202;-79
2022/04/11 06:22:42;;;;;;;;;10.00;10.00;;;;;11.09;56.56;100919.66;5107397;27;45261;-85
2022/04/11 06:25:08;;;;;;;;;11.25;9.50;;;;;10.96;56.57;100894.06;5099385;27;45525;-91
2022/04/11 06:27:37;;;;;;;;;11.75;11.00;;;;;11.24;56.81;100955.72;5087053;28;44806;-89
2022/04/11 06:30:05;;;;;;;;;9.75;9.75;;;;;11.27;56.40;100942.91;5078129;27;45357;-86
2022/04/11 06:32:32;;;;;;;;;12.50;10.25;;;;;11.07;56.40;100900.56;5064022;27;45439;-85
2022/04/11 06:34:58;;;;;;;;;14.25;10.25;;;;;11.11;56.37;100888.66;5059463;27;45467;-83
2022/04/11 06:37:24;;;;;;;;;17.00;13.00;;;;;11.27;56.20;100911.81;5099738;27;45332;-83
2022/04/11 06:39:51;;;;;;;;;7.00;7.00;;;;;11.22;56.01;100894.28;5086228;27;45242;-84
2022/04/11 06:42:17;;;;;;;;;14.00;10.00;;;;;11.30;56.06;100908.47;5066292;27;45676;-81
2022/04/11 06:44:43;;;;;;;;;9.50;7.00;;;;;11.28;55.91;100894.56;5086651;27;45317;-84
2022/04/11 06:47:12;;;;;;;;;8.00;8.00;;;;;11.40;55.65;100912.34;5078648;27;45544;-84
2022/04/11 06:49:38;;;;;;;;;9.00;9.00;;;;;11.40;55.59;100905.44;5078008;27;46440;-83
2022/04/11 06:52:24;;;;;;;;;7.50;7.50;;;;;11.43;55.33;100902.13;5088514;27;45874;-85
2022/04/11 06:54:50;;;;;;;;;8.00;8.00;;;;;11.36;54.91;100884.50;5025633;28;45422;-84
2022/04/11 06:57:15;;;;;;;;;9.00;8.50;;;;;11.38;54.77;100881.19;5024016;28;45288;-84
2022/04/11 06:59:41;;;;;;;;;12.25;9.00;;;;;11.38;54.63;100878.59;5038184;28;46479;-85
2022/04/11 07:02:07;;;;;;;;;12.00;8.75;;;;;11.54;54.47;100898.28;5026145;28;46937;-84
2022/04/11 07:04:33;;;;;;;;;8.00;8.00;;;;;11.41;54.36;100868.34;5022569;28;45312;-82
2022/04/11 07:06:58;;;;;;;;;8.50;7.50;;;;;11.38;54.20;100859.53;5019136;28;45555;-80
2022/04/11 07:09:24;;;;;;;;;10.25;8.25;;;;;11.61;54.08;100889.03;5021583;28;45556;-82
2022/04/11 07:11:49;;;;;;;;;9.00;8.00;;;;;11.59;54.08;100880.31;5017457;28;45420;-80
2022/04/11 07:14:15;;;;;;;;;7.00;7.00;;;;;11.58;54.16;100863.84;5015599;28;45596;-83
2022/04/11 07:16:41;;;;;;;;;8.00;8.00;;;;;11.63;53.97;100868.34;5020291;28;45457;-80
2022/04/11 07:19:06;;;;;;;;;6.25;6.25;;;;;11.56;53.79;100862.03;5019776;28;46144;-79
2022/04/11 07:21:32;;;;;;;;;9.00;8.00;;;;;11.52;54.21;100853.25;5015089;28;45637;-78
2022/04/11 07:23:58;;;;;;;;;11.25;9.50;;;;;11.62;54.15;100859.69;5025012;28;45457;-81
2022/04/11 07:26:24;;;;;;;;;8.00;8.00;;;;;11.63;53.89;100851.06;5067424;28;45265;-80
2022/04/11 07:28:50;;;;;;;;;9.00;9.00;;;;;11.67;53.87;100854.69;5077561;27;45587;-83
2022/04/11 07:31:16;;;;;;;;;9.25;9.25;;;;;11.70;54.10;100860.00;5078348;28;45223;-81
2022/04/11 07:33:41;;;;;;;;;14.50;11.25;;;;;11.72;54.30;100860.94;5082098;27;45501;-78
2022/04/11 07:36:07;;;;;;;;;9.50;9.50;;;;;11.76;54.21;100868.91;5087714;27;45257;-80
2022/04/11 07:38:33;;;;;;;;;8.00;8.00;;;;;11.75;54.16;100858.50;5073348;27;45419;-78
2022/04/11 07:40:58;;;;;;;;;9.25;8.25;;;;;11.82;53.98;100859.63;5100024;27;45243;-81
2022/04/11 07:43:24;;;;;;;;;10.00;7.50;;;;;11.72;54.11;100833.28;5084215;27;45456;-80
2022/04/11 07:45:49;;;;;;;;;7.25;6.00;;;;;11.90;53.88;100860.81;5079010;27;45896;-80
2022/04/11 07:48:15;;;;;;;;;9.00;9.00;;;;;11.92;53.79;100857.44;5097181;27;46073;-81
2022/04/11 07:50:41;;;;;;;;;9.50;7.00;;;;;11.97;53.76;100860.22;5069020;27;45515;-81
2022/04/11 07:53:06;;;;;;;;;8.00;7.00;;;;;11.95;53.81;100843.72;5088736;27;45458;-82
2022/04/11 07:55:33;;;;;;;;;8.50;8.50;;;;;11.95;53.78;100837.66;5093234;27;45626;-81
2022/04/11 07:57:59;;;;;;;;;13.25;9.00;;;;;12.06;53.86;100836.41;5089783;27;46161;-83
2022/04/11 08:00:25;;;;;;;;;9.00;8.00;;;;;12.00;53.73;100816.28;5080171;27;45331;-80
2022/04/11 08:02:55;;;;;;;;;7.25;7.25;;;;;12.15;53.64;100834.16;5081514;27;45304;-82
2022/04/11 08:05:22;;;;;;;;;8.25;7.50;;;;;12.19;53.58;100835.16;5080141;27;45472;-81
2022/04/11 08:07:49;;;;;;;;;7.50;7.50;;;;;12.22;53.66;100827.50;5097970;27;45975;-79
2022/04/11 08:10:16;;;;;;;;;8.25;7.25;;;;;12.17;53.58;100816.03;5079658;27;45349;-78
2022/04/11 08:12:51;;;;;;;;;11.00;10.00;;;;;12.29;53.33;100826.88;5068734;27;45286;-78
2022/04/11 08:15:16;;;;;;;;;7.75;7.75;;;;;12.29;53.60;100820.81;5081466;27;45346;-78
2022/04/11 08:17:42;;;;;;;;;10.00;9.00;;;;;12.28;53.55;100814.72;5076942;28;46104;-79
2022/04/11 08:20:08;;;;;;;;;9.00;8.25;;;;;12.33;53.46;100815.81;5077986;28;45364;-77
2022/04/11 08:22:33;;;;;;;;;8.00;8.00;;;;;12.46;53.70;100829.25;5079188;28;45340;-79
2022/04/11 08:24:59;;;;;;;;;9.00;9.00;;;;;12.47;53.40;100825.81;5077710;28;45221;-80
2022/04/11 08:27:24;;;;;;;;;10.25;7.75;;;;;12.54;53.09;100827.81;5042286;28;47629;-80
2022/04/11 08:29:50;;;;;;;;;9.75;8.50;;;;;12.55;52.99;100821.78;5077064;27;45592;-83
2022/04/11 08:32:18;;;;;;;;;6.25;6.25;;;;;12.46;52.82;100798.97;5096359;27;45378;-80
2022/04/11 08:34:44;;;;;;;;;8.25;6.00;;;;;12.69;53.12;100817.09;5077780;28;45438;-80
2022/04/11 08:37:10;;;;;;;;;13.75;9.25;;;;;12.64;53.32;100797.84;5076039;28;45987;-80
2022/04/11 08:39:35;;;;;;;;;9.00;8.00;;;;;12.66;53.13;100789.31;5076975;28;45451;-80
2022/04/11 08:42:02;;;;;;;;;10.25;8.00;;;;;12.80;52.77;100812.28;5076783;28;45477;-79
2022/04/11 08:44:28;;;;;;;;;9.50;7.25;;;;;12.75;52.39;100796.53;5078274;27;45581;-80
2022/04/11 08:47:05;;;;;;;;;8.00;8.00;;;;;12.84;52.81;100801.16;5078917;27;46277;-80
2022/04/11 08:49:31;;;;;;;;;9.25;8.50;;;;;12.72;52.97;100761.75;5081282;27;45315;-79
2022/04/11 08:51:57;;;;;;;;;8.00;7.50;;;;;12.93;52.64;100782.44;5078914;27;45441;-82
2022/04/11 08:54:23;;;;;;;;;8.50;7.00;;;;;12.96;52.90;100778.22;5080540;27;45398;-83
2022/04/11 08:56:49;;;;;;;;;10.00;8.00;;;;;12.89;52.97;100759.75;5088509;27;46149;-82
2022/04/11 08:59:15;;;;;;;;;7.00;7.00;;;;;13.03;53.13;100762.81;5085719;27;45269;-82
2022/04/11 09:01:41;;;;;;;;;11.75;9.75;;;;;13.09;52.68;100763.91;5088949;27;45507;-78
2022/04/11 09:04:10;;;;;;;;;10.00;10.00;;;;;13.18;52.48;100768.53;5094274;27;45231;-78
2022/04/11 09:06:36;;;;;;;;;10.25;7.00;;;;;13.24;51.93;100763.53;5096960;27;46017;-78
2022/04/11 09:09:03;;;;;;;;;9.00;7.00;;;;;13.28;52.08;100759.34;5096968;27;45879;-79
2022/04/11 09:11:37;;;;;;;;;8.00;7.00;;;;;13.31;51.49;100755.13;5079202;27;45380;-81
2022/04/11 09:14:07;;;;;;;;;5.50;5.50;;;;;13.35;52.23;100750.00;5097707;27;45560;-80
2022/04/11 09:16:48;;;;;;;;;5.50;5.00;;;;;13.42;51.47;100758.09;5097112;27;46064;-77
2022/04/11 09:19:25;;;;;;;;;8.00;6.00;;;;;13.49;51.44;100756.56;5095167;27;45931;-80
2022/04/11 09:21:54;;;;;;;;;6.00;5.25;;;;;13.49;49.72;100753.97;5097550;27;45409;-80
2022/04/11 09:24:22;;;;;;;;;6.00;5.00;;;;;13.54;50.40;100751.50;5089488;27;45834;-80
2022/04/11 09:26:49;;;;;;;;;5.25;3.75;;;;;13.40;49.83;100712.06;5076722;28;45364;-80
2022/04/11 09:29:15;;;;;;;;;7.25;7.00;;;;;13.65;49.92;100749.28;5076907;28;45854;-81
2022/04/11 09:31:42;;;;;;;;;4.00;4.00;;;;;13.65;50.03;100729.31;5058633;28;45427;-81
2022/04/11 09:34:21;;;;;;;;;7.25;6.25;;;;;13.75;49.75;100746.97;5060344;28;45504;-81
2022/04/11 09:36:54;;;;;;;;;4.50;4.50;;;;;13.71;49.47;100728.63;5077814;27;45645;-85
2022/04/11 09:39:25;;;;;;;;;5.00;3.50;;;;;13.86;49.45;100741.22;5077507;27;46007;-80
2022/04/11 09:41:51;;;;;;;;;6.50;3.75;;;;;13.95;49.67;100736.28;5076114;27;45299;-78
2022/04/11 09:44:23;;;;;;;;;6.00;5.00;;;;;14.03;48.46;100732.22;5058630;27;45568;-81
2022/04/11 09:46:57;;;;;;;;;4.75;4.75;;;;;14.10;48.78;100728.03;5061185;28;45414;-81
2022/04/11 09:49:23;;;;;;;;;4.50;4.50;;;;;14.14;48.97;100727.31;5076890;27;45890;-81
2022/04/11 09:52:11;;;;;;;;;3.75;3.75;;;;;14.17;48.63;100719.59;5079150;27;45524;-82
2022/04/11 09:54:39;;;;;;;;;3.00;3.00;;;;;14.26;48.31;100718.06;5092730;27;45530;-82
2022/04/11 09:57:06;;;;;;;;;6.50;4.00;;;;;14.31;48.64;100726.88;5099111;27;45697;-86
2022/04/11 09:59:33;;;;;;;;;5.50;4.50;;;;;14.34;49.39;100722.66;5097580;27;45377;-82
2022/04/11 10:01:59;;;;;;;;;6.00;4.75;;;;;14.36;48.44;100720.97;5096773;27;45376;-82
2022/04/11 10:04:26;;;;;;;;;5.25;4.00;;;;;14.44;48.93;100717.72;5097428;27;45358;-84
2022/04/11 10:06:53;;;;;;;;;4.50;4.50;;;;;14.40;48.41;100709.81;5092402;27;45232;-82
2022/04/11 10:09:22;;;;;;;;;4.75;4.00;;;;;14.51;48.75;100714.41;5090075;27;45957;-88
2022/04/11 10:11:48;;;;;;;;;5.50;4.00;;;;;14.56;47.96;100712.84;5085541;27;45543;-83
2022/04/11 10:14:25;;;;;;;;;3.00;3.00;;;;;14.67;47.53;100718.34;5087188;27;45493;-85
2022/04/11 10:16:55;;;;;;;;;3.50;3.50;;;;;14.76;47.21;100709.91;5097153;27;45239;-84
2022/04/11 10:19:27;;;;;;;;;4.00;3.00;;;;;14.76;47.62;100699.47;5086006;27;45663;-88
2022/04/11 10:22:07;;;;;;;;;5.25;5.00;;;;;14.91;47.33;100712.88;5078039;28;45261;-85
2022/04/11 10:24:52;;;;;;;;;3.00;3.00;;;;;14.90;47.36;100694.59;5080376;28;45484;-86
2022/04/11 10:27:23;;;;;;;;;4.75;3.00;;;;;15.00;46.28;100697.50;5067119;28;46912;-89
2022/04/11 10:29:51;;;;;;;;;4.75;4.00;;;;;14.97;46.50;100688.69;5083926;28;45335;-89
2022/04/11 10:32:21;;;;;;;;;3.25;3.25;;;;;14.98;46.21;100667.00;5065723;28;45330;-89
2022/04/11 10:34:55;;;;;;;;;3.00;3.00;;;;;15.09;46.44;100678.56;5082246;27;45232;-87
2022/04/11 10:37:48;;;;;;;;;4.25;4.25;;;;;14.95;47.10;100638.28;5082569;28;45309;-87
2022/04/11 10:40:16;;;;;;;;;5.00;5.00;;;;;15.20;46.47;100673.63;5087833;28;45283;-86
2022/04/11 10:43:08;;;;;;;;;3.00;3.00;;;;;15.25;46.64;100678.94;5097390;28;45146;-83
2022/04/11 10:45:57;;;;;;;;;4.00;3.75;;;;;15.28;46.05;100677.28;5070872;28;45296;-83
2022/04/11 10:48:58;;;;;;;;;4.75;4.00;;;;;15.27;46.78;100659.00;5103134;27;47133;-92
2022/04/11 10:51:24;;;;;;;;;4.00;4.00;;;;;15.32;45.94;100649.53;5064471;28;45409;-89
2022/04/11 10:54:19;;;;;;;;;6.25;3.50;;;;;15.37;46.54;100652.25;5082498;28;45300;-83
2022/04/11 10:56:55;;;;;;;;;3.50;3.50;;;;;15.31;45.63;100643.47;5100682;27;45510;-91
2022/04/11 10:59:48;;;;;;;;;6.00;3.00;;;;;15.35;46.02;100638.28;5084481;27;45637;-86
2022/04/11 11:02:15;;;;;;;;;5.00;4.25;;;;;15.43;46.17;100636.75;5084205;27;45406;-90
2022/04/11 11:04:42;;;;;;;;;4.75;4.00;;;;;15.40;46.12;100621.88;5088166;27;45264;-91
2022/04/11 11:07:37;;;;;;;;;3.00;3.00;;;;;15.47;45.83;100623.81;5072789;28;45311;-93
2022/04/11 11:10:04;;;;;;;;;4.25;4.25;;;;;15.30;45.57;100584.31;5069715;27;45411;-88
2022/04/11 11:12:32;;;;;;;;;2.00;2.00;;;;;15.46;44.74;100598.56;5074767;28;45429;-90
2022/04/11 11:15:24;;;;;;;;;6.50;4.00;;;;;15.74;44.63;100633.06;5092473;27;45385;-87
2022/04/11 11:17:59;;;;;;;;;2.00;2.00;;;;;15.85;44.44;100630.72;5094491;28;45503;-84
2022/04/11 11:20:32;;;;;;;;;3.75;3.00;;;;;15.91;44.52;100628.22;5086561;28;45399;-88
2022/04/11 11:23:21;;;;;;;;;4.50;4.50;;;;;15.83;44.50;100598.44;5091914;27;45240;-81
2022/04/11 11:25:50;;;;;;;;;4.00;4.00;;;;;16.08;44.23;100649.44;5091844;27;45274;-89
2022/04/11 11:28:16;;;;;;;;;3.00;3.00;;;;;15.97;43.95;100616.13;5090040;28;45315;-88